Time;durP1;ratioP1;P1;durP2;ratioP2;P2;SDS_P1;SDS_P2;PMS_P1;PMS_P2;Temp;Humidity;BMP_temperature;BMP_pressure;BME280_temperature;BME280_humidity;BME280_pressure;Samples;Min_cycle;Max_cycle;Signal;HPM_P1;HPM_P2
2022/04/07 00:02:16;;;;;;;13.23;8.73;;;;;;;8.84;87.98;99142.34;5072635;28;20435;-56
2022/04/07 00:04:41;;;;;;;16.90;8.80;;;;;;;8.87;87.17;99134.22;5072770;28;20043;-54
2022/04/07 00:07:07;;;;;;;14.52;8.20;;;;;;;8.86;87.39;99132.63;5072800;28;20029;-55
2022/04/07 00:09:32;;;;;;;14.27;8.85;;;;;;;8.86;86.92;99118.81;5073140;28;20534;-56
2022/04/07 00:11:57;;;;;;;14.32;8.57;;;;;;;8.86;86.84;99124.34;5072696;28;20029;-56
2022/04/07 00:14:23;;;;;;;13.57;8.75;;;;;;;8.86;86.09;99116.06;5072729;28;20028;-55
2022/04/07 00:16:48;;;;;;;16.30;9.25;;;;;;;8.85;86.76;99099.84;5072645;28;20481;-56
2022/04/07 00:19:13;;;;;;;15.15;9.05;;;;;;;8.82;86.65;99111.56;5072037;28;20029;-54
2022/04/07 00:21:40;;;;;;;14.40;8.63;;;;;;;8.78;86.46;99099.59;5054002;28;20078;-56
2022/04/07 00:24:07;;;;;;;13.35;8.85;;;;;;;8.81;85.72;99093.41;5072114;28;20036;-55
2022/04/07 00:26:33;;;;;;;14.00;8.82;;;;;;;8.79;86.00;99090.97;5071868;28;20028;-55
2022/04/07 00:28:59;;;;;;;12.57;8.73;;;;;;;8.82;85.84;99084.78;5072043;28;20052;-56
2022/04/07 00:31:25;;;;;;;17.73;9.60;;;;;;;8.73;86.92;99081.28;5072121;28;20488;-56
2022/04/07 00:33:50;;;;;;;16.45;8.93;;;;;;;8.72;86.78;99077.75;5076278;28;20416;-56
2022/04/07 00:36:15;;;;;;;15.75;8.73;;;;;;;8.75;86.77;99070.75;5076182;28;20024;-54
2022/04/07 00:38:41;;;;;;;14.50;8.70;;;;;;;8.69;87.33;99066.59;5075748;28;20051;-53
2022/04/07 00:41:06;;;;;;;16.00;9.43;;;;;;;8.68;87.51;99065.75;5076250;28;20032;-56
2022/04/07 00:43:33;;;;;;;16.95;8.80;;;;;;;8.64;87.26;99053.81;5076403;28;20016;-55
2022/04/07 00:45:59;;;;;;;16.15;8.65;;;;;;;8.63;87.43;99052.19;5076516;28;20035;-56
2022/04/07 00:48:26;;;;;;;17.00;9.60;;;;;;;8.60;87.56;99046.56;5076741;28;20024;-57
2022/04/07 00:50:53;;;;;;;13.48;8.75;;;;;;;8.53;87.95;99031.34;5076547;28;20024;-56
2022/04/07 00:53:18;;;;;;;15.80;9.23;;;;;;;8.56;87.88;99027.94;5076512;28;20093;-56
2022/04/07 00:55:44;;;;;;;16.48;9.40;;;;;;;8.51;87.99;99021.81;5076452;28;20021;-57
2022/04/07 00:58:10;;;;;;;16.40;8.55;;;;;;;8.60;87.83;99017.03;5076300;28;20039;-57
2022/04/07 01:00:35;;;;;;;15.73;9.02;;;;;;;8.56;87.94;99016.06;5075868;28;20068;-56
2022/04/07 01:03:00;;;;;;;17.02;8.85;;;;;;;8.51;88.79;99017.09;5076230;28;20024;-55
2022/04/07 01:05:26;;;;;;;18.75;9.60;;;;;;;8.53;88.28;99003.78;5076232;28;20051;-56
2022/04/07 01:07:51;;;;;;;17.90;9.32;;;;;;;8.56;87.88;99005.06;5075817;28;20119;-54
2022/04/07 01:10:19;;;;;;;18.30;10.60;;;;;;;8.61;87.77;99009.56;5075705;28;20036;-56
2022/04/07 01:12:44;;;;;;;16.65;9.23;;;;;;;8.49;88.53;98991.03;5076071;28;20025;-57
2022/04/07 01:15:10;;;;;;;15.07;8.95;;;;;;;8.60;88.35;98996.94;5076020;28;20031;-55
2022/04/07 01:17:35;;;;;;;18.30;9.57;;;;;;;8.57;88.77;98996.47;5075483;28;20048;-55
2022/04/07 01:20:03;;;;;;;18.70;9.43;;;;;;;8.54;89.01;98993.59;5075013;28;20024;-55
2022/04/07 01:22:29;;;;;;;16.60;9.25;;;;;;;8.47;89.94;98988.63;5075330;28;20503;-56
2022/04/07 01:24:54;;;;;;;17.70;9.93;;;;;;;8.41;89.87;98990.72;5075257;28;20032;-54
2022/04/07 01:27:20;;;;;;;17.63;9.77;;;;;;;8.45;89.79;98979.84;5074852;28;20040;-56
2022/04/07 01:29:45;;;;;;;16.27;9.40;;;;;;;8.53;89.10;98989.22;5075355;28;20029;-56
2022/04/07 01:32:16;;;;;;;16.45;9.02;;;;;;;8.47;89.38;98972.06;5075314;28;20126;-55
2022/04/07 01:34:41;;;;;;;14.63;9.30;;;;;;;8.54;88.45;98961.31;5075601;28;20056;-56
2022/04/07 01:37:08;;;;;;;17.50;9.30;;;;;;;8.53;88.54;98962.44;5076253;28;20067;-53
2022/04/07 01:39:35;;;;;;;18.17;9.52;;;;;;;8.52;88.77;98968.31;5075657;28;20032;-55
2022/04/07 01:42:01;;;;;;;17.27;9.20;;;;;;;8.51;88.73;98963.94;5075713;28;20039;-55
2022/04/07 01:44:27;;;;;;;17.42;9.65;;;;;;;8.47;88.46;98947.28;5075488;28;20025;-55
2022/04/07 01:46:54;;;;;;;16.17;9.30;;;;;;;8.49;88.00;98949.69;5075951;28;20029;-57
2022/04/07 01:49:22;;;;;;;16.33;9.40;;;;;;;8.50;88.13;98935.56;5075334;28;20028;-57
2022/04/07 01:51:48;;;;;;;18.33;9.18;;;;;;;8.54;87.63;98933.75;5075362;28;20472;-57
2022/04/07 01:54:14;;;;;;;17.00;9.18;;;;;;;8.55;87.58;98935.34;5075386;28;20098;-54
2022/04/07 01:56:42;;;;;;;18.33;8.98;;;;;;;8.55;87.14;98926.25;5075827;28;20035;-57
2022/04/07 01:59:08;;;;;;;16.52;8.98;;;;;;;8.56;87.06;98925.13;5075621;28;20090;-57
2022/04/07 02:01:34;;;;;;;18.95;9.60;;;;;;;8.55;87.22;98927.09;5075593;28;20029;-57
2022/04/07 02:03:59;;;;;;;17.85;9.18;;;;;;;8.62;86.58;98909.19;5075534;28;20426;-57
2022/04/07 02:06:25;;;;;;;15.40;8.80;;;;;;;8.65;86.03;98900.25;5075726;28;20099;-57
2022/04/07 02:08:51;;;;;;;16.92;9.40;;;;;;;8.60;86.38;98890.25;5075402;28;20524;-57
2022/04/07 02:11:16;;;;;;;16.88;9.18;;;;;;;8.61;86.66;98896.53;5075100;28;20046;-58
2022/04/07 02:13:41;;;;;;;17.90;9.27;;;;;;;8.66;86.39;98901.84;5075366;28;20031;-56
2022/04/07 02:16:08;;;;;;;18.13;8.90;;;;;;;8.65;86.35;98884.50;5074821;28;20025;-53
2022/04/07 02:18:34;;;;;;;17.48;9.00;;;;;;;8.69;86.63;98893.69;5074857;28;20028;-54
2022/04/07 02:21:00;;;;;;;19.17;10.27;;;;;;;8.69;86.64;98887.41;5073826;28;20055;-53
2022/04/07 02:23:26;;;;;;;17.60;9.73;;;;;;;8.64;87.13;98882.91;5074320;28;20552;-54
2022/04/07 02:25:52;;;;;;;15.73;9.50;;;;;;;8.67;86.29;98862.91;5074455;28;20036;-55
2022/04/07 02:28:18;;;;;;;18.02;9.90;;;;;;;8.63;86.53;98875.78;5074747;28;20108;-55
2022/04/07 02:30:44;;;;;;;17.20;9.65;;;;;;;8.60;86.90;98870.16;5075018;28;20481;-53
2022/04/07 02:33:09;;;;;;;17.92;10.15;;;;;;;8.62;86.64;98879.69;5075165;28;20029;-56
2022/04/07 02:35:34;;;;;;;18.85;9.48;;;;;;;8.64;86.98;98873.81;5074988;28;20036;-53
2022/04/07 02:38:00;;;;;;;19.17;9.93;;;;;;;8.61;86.63;98867.03;5074942;28;20036;-55
2022/04/07 02:40:25;;;;;;;15.82;8.82;;;;;;;8.63;86.36;98861.19;5074769;28;20074;-55
2022/04/07 02:42:50;;;;;;;17.48;8.82;;;;;;;8.64;86.50;98860.03;5074756;28;20524;-54
2022/04/07 02:45:16;;;;;;;17.90;8.77;;;;;;;8.76;85.27;98851.78;5074620;28;20560;-55
2022/04/07 02:47:41;;;;;;;18.48;9.55;;;;;;;8.70;85.61;98853.16;5074866;28;20039;-54
2022/04/07 02:50:07;;;;;;;20.10;9.15;;;;;;;8.65;85.93;98845.13;5074384;28;20028;-53
2022/04/07 02:52:33;;;;;;;22.77;9.90;;;;;;;8.67;85.51;98840.06;5074649;28;20388;-54
2022/04/07 02:54:58;;;;;;;19.10;9.45;;;;;;;8.64;85.07;98827.78;5074022;28;20020;-55
2022/04/07 02:57:25;;;;;;;18.92;9.88;;;;;;;8.70;84.65;98823.66;5074552;28;20028;-56
2022/04/07 02:59:51;;;;;;;22.02;10.00;;;;;;;8.72;84.03;98826.88;5074267;28;20032;-54
2022/04/07 03:02:17;;;;;;;20.17;10.25;;;;;;;8.70;84.14;98806.28;5074194;28;20051;-55
2022/04/07 03:04:43;;;;;;;17.25;8.95;;;;;;;8.75;83.75;98803.31;5074289;28;20378;-56
2022/04/07 03:07:08;;;;;;;18.13;9.43;;;;;;;8.74;83.92;98804.47;5074161;28;20036;-55
2022/04/07 03:09:33;;;;;;;18.08;9.60;;;;;;;8.72;84.23;98792.97;5074718;28;20170;-56
2022/04/07 03:11:58;;;;;;;18.30;9.23;;;;;;;8.72;84.44;98782.75;5073929;28;20036;-53
2022/04/07 03:14:27;;;;;;;21.25;9.65;;;;;;;8.76;84.09;98782.06;5073734;28;20021;-55
2022/04/07 03:16:53;;;;;;;17.13;9.90;;;;;;;8.77;84.13;98786.41;5073689;28;20016;-56
2022/04/07 03:19:18;;;;;;;19.15;9.57;;;;;;;8.79;83.91;98767.59;5073575;28;20040;-55
2022/04/07 03:21:44;;;;;;;19.20;10.35;;;;;;;8.78;83.98;98775.06;5073389;28;20029;-55
2022/04/07 03:24:10;;;;;;;18.40;9.20;;;;;;;8.92;82.67;98757.34;5073597;28;20043;-54
2022/04/07 03:26:35;;;;;;;19.27;9.32;;;;;;;8.95;82.44;98756.66;5073748;28;20051;-54
2022/04/07 03:29:01;;;;;;;19.05;9.68;;;;;;;8.92;82.19;98738.88;5073458;28;20455;-55
2022/04/07 03:31:26;;;;;;;17.02;9.05;;;;;;;9.03;81.76;98739.19;5073459;28;20028;-54
2022/04/07 03:33:51;;;;;;;21.23;9.40;;;;;;;8.98;82.06;98745.75;5074071;28;20028;-56
2022/04/07 03:36:17;;;;;;;20.52;9.32;;;;;;;8.91;82.12;98734.50;5073779;28;20017;-55
2022/04/07 03:38:43;;;;;;;16.70;9.60;;;;;;;8.90;82.19;98735.66;5074101;28;20051;-56
2022/04/07 03:41:08;;;;;;;16.52;9.40;;;;;;;8.98;81.79;98743.00;5073893;28;20469;-56
2022/04/07 03:43:34;;;;;;;17.10;9.50;;;;;;;9.06;80.89;98727.47;5073914;28;20039;-55
2022/04/07 03:45:59;;;;;;;19.98;9.70;;;;;;;9.02;80.87;98721.81;5074040;28;20020;-55
2022/04/07 03:48:24;;;;;;;16.85;9.70;;;;;;;9.09;80.36;98721.25;5073881;28;20346;-54
2022/04/07 03:50:50;;;;;;;17.02;9.20;;;;;;;9.07;80.33;98700.69;5073513;28;20024;-55
2022/04/07 03:53:15;;;;;;;21.38;10.63;;;;;;;9.00;80.78;98707.59;5074016;28;20067;-56
2022/04/07 03:55:40;;;;;;;19.98;9.95;;;;;;;8.96;81.21;98709.44;5073383;28;20059;-56
2022/04/07 03:58:06;;;;;;;19.13;9.70;;;;;;;9.05;81.00;98709.31;5073520;28;20028;-56
2022/04/07 04:00:31;;;;;;;18.98;9.30;;;;;;;8.96;81.36;98698.41;5073592;28;20029;-56
2022/04/07 04:02:56;;;;;;;17.17;9.02;;;;;;;9.01;81.18;98689.09;5073887;28;20044;-54
2022/04/07 04:05:22;;;;;;;19.80;8.80;;;;;;;8.94;82.12;98681.38;5073150;28;20456;-56
2022/04/07 04:07:48;;;;;;;18.45;9.48;;;;;;;9.00;81.00;98674.50;5073545;28;20036;-56
2022/04/07 04:10:14;;;;;;;18.90;9.70;;;;;;;8.97;81.33;98669.66;5073875;28;20111;-56
2022/04/07 04:12:39;;;;;;;18.10;9.50;;;;;;;8.94;81.81;98650.28;5073119;28;20493;-54
2022/04/07 04:15:05;;;;;;;18.13;9.60;;;;;;;8.89;82.25;98649.34;5073518;28;20378;-56
2022/04/07 04:17:31;;;;;;;18.83;10.10;;;;;;;8.93;81.46;98626.59;5073218;28;20066;-56
2022/04/07 04:19:57;;;;;;;17.67;9.23;;;;;;;8.89;82.00;98618.22;5073419;28;20078;-56
2022/04/07 04:22:22;;;;;;;15.10;9.10;;;;;;;8.79;81.95;98611.22;5073642;28;20107;-57
2022/04/07 04:24:48;;;;;;;15.30;9.18;;;;;;;8.82;81.58;98590.44;5073427;28;20495;-57
2022/04/07 04:27:13;;;;;;;17.95;9.35;;;;;;;8.84;81.53;98566.88;5073236;28;20029;-57
2022/04/07 04:29:40;;;;;;;16.98;9.25;;;;;;;8.85;81.59;98567.69;5073411;28;20029;-55
2022/04/07 04:32:06;;;;;;;18.50;9.63;;;;;;;8.82;81.60;98577.47;5072788;28;20098;-56
2022/04/07 04:34:31;;;;;;;17.48;10.35;;;;;;;8.85;81.32;98574.00;5073224;28;20072;-56
2022/04/07 04:36:56;;;;;;;18.13;9.20;;;;;;;8.96;80.49;98557.75;5072000;28;20017;-55
2022/04/07 04:39:21;;;;;;;14.40;9.20;;;;;;;8.88;81.63;98562.25;5073497;28;20117;-55
2022/04/07 04:41:47;;;;;;;15.52;9.43;;;;;;;8.96;80.26;98556.97;5072847;28;20481;-55
2022/04/07 04:44:12;;;;;;;13.85;8.70;;;;;;;9.01;79.96;98553.94;5072870;28;20449;-55
2022/04/07 04:46:37;;;;;;;18.75;9.45;;;;;;;9.03;79.68;98546.91;5073298;28;20024;-57
2022/04/07 04:49:03;;;;;;;13.55;9.05;;;;;;;9.02;80.08;98547.28;5072707;28;20086;-56
2022/04/07 04:51:28;;;;;;;16.45;9.57;;;;;;;9.02;80.60;98545.31;5072701;28;20028;-56
2022/04/07 04:53:54;;;;;;;16.17;9.30;;;;;;;9.06;80.90;98528.88;5072891;28;20392;-57
2022/04/07 04:56:20;;;;;;;15.60;9.70;;;;;;;9.11;80.97;98534.13;5073321;28;20079;-55
2022/04/07 04:58:45;;;;;;;16.63;10.10;;;;;;;9.05;81.69;98525.31;5072938;28;20025;-55
2022/04/07 05:01:10;;;;;;;14.18;10.00;;;;;;;9.01;82.86;98535.47;5073166;28;20033;-55
2022/04/07 05:03:36;;;;;;;15.30;9.73;;;;;;;9.01;83.39;98520.84;5072767;28;20032;-55
2022/04/07 05:06:02;;;;;;;13.55;9.50;;;;;;;9.00;83.21;98495.25;5072886;28;20122;-55
2022/04/07 05:08:28;;;;;;;15.85;10.00;;;;;;;8.85;84.84;98474.75;5073034;28;20033;-57
2022/04/07 05:10:53;;;;;;;14.00;9.63;;;;;;;8.92;84.56;98462.31;5072706;28;20031;-57
2022/04/07 05:13:18;;;;;;;15.75;9.98;;;;;;;8.83;85.28;98465.25;5073070;28;20024;-57
2022/04/07 05:15:44;;;;;;;14.40;9.70;;;;;;;8.82;85.06;98471.91;5072608;28;20044;-56
2022/04/07 05:18:09;;;;;;;14.70;10.20;;;;;;;8.74;86.02;98466.16;5073745;28;20025;-57
2022/04/07 05:20:35;;;;;;;13.68;9.77;;;;;;;8.80;85.15;98482.47;5076255;28;20028;-57
2022/04/07 05:23:00;;;;;;;15.15;9.60;;;;;;;8.80;85.38;98457.66;5076352;28;20021;-54
2022/04/07 05:25:26;;;;;;;13.57;9.40;;;;;;;8.74;85.53;98449.63;5076651;28;20495;-56
2022/04/07 05:27:51;;;;;;;12.73;9.52;;;;;;;8.80;85.37;98444.66;5076503;28;20453;-58
2022/04/07 05:30:16;;;;;;;13.80;9.32;;;;;;;8.90;85.04;98443.38;5076209;28;20020;-57
2022/04/07 05:32:43;;;;;;;16.15;9.60;;;;;;;8.83;85.91;98446.72;5075934;28;20036;-57
2022/04/07 05:35:10;;;;;;;11.38;8.60;;;;;;;8.87;86.16;98419.25;5076218;28;20365;-55
2022/04/07 05:37:35;;;;;;;14.45;9.40;;;;;;;8.71;87.89;98408.19;5076087;28;20484;-56
2022/04/07 05:40:01;;;;;;;15.90;9.30;;;;;;;8.65;88.42;98421.44;5075700;28;20071;-54
2022/04/07 05:42:26;;;;;;;15.18;8.85;;;;;;;8.63;89.14;98409.97;5075847;28;20028;-55
2022/04/07 05:44:52;;;;;;;15.75;9.57;;;;;;;8.56;89.35;98410.59;5075555;28;20060;-56
2022/04/07 05:47:17;;;;;;;13.77;9.30;;;;;;;8.61;89.59;98404.00;5075876;28;20029;-56
2022/04/07 05:49:42;;;;;;;14.52;9.60;;;;;;;8.57;90.24;98409.44;5076019;28;20380;-55
2022/04/07 05:52:07;;;;;;;17.17;9.50;;;;;;;8.59;90.26;98403.56;5075573;28;20024;-56
2022/04/07 05:54:33;;;;;;;15.43;10.02;;;;;;;8.46;91.92;98391.78;5075669;28;20454;-55
2022/04/07 05:56:59;;;;;;;16.90;9.90;;;;;;;8.47;92.00;98382.38;5075607;28;20036;-59
2022/04/07 05:59:24;;;;;;;17.45;9.73;;;;;;;8.31;93.65;98371.28;5075600;28;20028;-55
2022/04/07 06:01:50;;;;;;;16.38;10.18;;;;;;;8.22;94.50;98354.13;5075572;28;20103;-54
2022/04/07 06:04:15;;;;;;;18.60;10.18;;;;;;;8.24;94.50;98352.63;5075883;28;20035;-58
2022/04/07 06:06:40;;;;;;;17.83;10.02;;;;;;;8.19;94.54;98347.38;5078104;28;20132;-56
2022/04/07 06:09:06;;;;;;;16.23;9.48;;;;;;;8.20;94.56;98348.16;5075564;28;20028;-58
2022/04/07 06:11:31;;;;;;;18.73;9.88;;;;;;;8.22;94.46;98354.91;5075472;28;20025;-55
2022/04/07 06:13:57;;;;;;;19.33;10.10;;;;;;;8.18;94.91;98337.50;5075384;28;20065;-55
2022/04/07 06:16:22;;;;;;;21.27;9.85;;;;;;;8.19;94.74;98324.53;5074806;28;20208;-55
2022/04/07 06:18:47;;;;;;;16.65;9.27;;;;;;;8.16;94.92;98331.53;5074774;28;20029;-57
2022/04/07 06:21:13;;;;;;;17.40;9.68;;;;;;;8.26;94.00;98325.53;5074186;28;20043;-55
2022/04/07 06:23:39;;;;;;;16.27;9.25;;;;;;;8.23;94.13;98312.44;5074623;28;20035;-57
2022/04/07 06:26:06;;;;;;;17.15;9.20;;;;;;;8.22;94.45;98294.31;5075026;28;20109;-56
2022/04/07 06:28:31;;;;;;;14.30;8.85;;;;;;;8.27;93.71;98294.06;5072651;28;20067;-54
2022/04/07 06:30:56;;;;;;;18.42;8.93;;;;;;;8.20;94.73;98287.56;5070881;28;20060;-53
2022/04/07 06:33:22;;;;;;;18.77;9.10;;;;;;;8.17;95.37;98282.78;5071810;28;20037;-54
2022/04/07 06:35:49;;;;;;;17.05;9.10;;;;;;;8.21;94.51;98283.66;5072008;28;20435;-55
2022/04/07 06:38:15;;;;;;;16.45;8.20;;;;;;;8.37;93.43;98275.41;5071509;28;20032;-55
2022/04/07 06:40:40;;;;;;;16.25;9.27;;;;;;;8.25;94.61;98277.09;5071376;28;20039;-54
2022/04/07 06:43:05;;;;;;;14.05;8.60;;;;;;;8.24;94.55;98271.94;5072180;28;20024;-56
2022/04/07 06:45:30;;;;;;;16.88;9.10;;;;;;;8.15;95.33;98260.31;5070531;28;20397;-55
2022/04/07 06:47:56;;;;;;;17.88;8.73;;;;;;;8.21;95.37;98243.16;5072222;28;20074;-55
2022/04/07 06:50:23;;;;;;;16.50;8.40;;;;;;;8.16;95.71;98239.88;5071134;28;20086;-50
2022/04/07 06:52:49;;;;;;;14.23;8.15;;;;;;;8.22;95.34;98230.97;5084050;28;20127;-56
2022/04/07 06:55:15;;;;;;;14.60;8.13;;;;;;;8.20;95.60;98215.97;5072137;28;20100;-55
2022/04/07 06:57:52;;;;;;;15.27;8.52;;;;;;;8.21;95.32;98215.63;5071707;28;20083;-55
2022/04/07 07:00:22;;;;;;;13.95;8.18;;;;;;;8.24;95.47;98214.91;5071361;28;20031;-54
2022/04/07 07:02:48;;;;;;;14.93;8.05;;;;;;;8.38;94.19;98208.94;5071312;28;20028;-55
2022/04/07 07:05:14;;;;;;;15.10;7.90;;;;;;;8.34;95.07;98186.03;5071890;28;20052;-55
2022/04/07 07:07:39;;;;;;;16.02;7.95;;;;;;;8.36;94.80;98171.91;5071661;28;20100;-55
2022/04/07 07:10:06;;;;;;;14.50;7.80;;;;;;;8.36;94.98;98169.13;5071611;28;20044;-54
2022/04/07 07:12:31;;;;;;;12.27;7.63;;;;;;;8.27;96.02;98170.13;5071303;28;20361;-55
2022/04/07 07:14:56;;;;;;;15.68;7.60;;;;;;;8.31;95.14;98164.69;5071333;28;20496;-54
2022/04/07 07:17:22;;;;;;;15.65;8.45;;;;;;;8.22;96.45;98159.38;5071151;28;20193;-55
2022/04/07 07:19:47;;;;;;;17.55;8.35;;;;;;;8.25;95.88;98152.38;5071162;28;20388;-55
2022/04/07 07:22:12;;;;;;;14.05;8.70;;;;;;;8.20;96.31;98136.91;5071372;28;20074;-54
2022/04/07 07:24:37;;;;;;;16.40;8.63;;;;;;;8.12;97.70;98129.63;5071260;28;20039;-54
2022/04/07 07:27:03;;;;;;;14.60;7.88;;;;;;;8.08;97.99;98123.22;5071028;28;20083;-57
2022/04/07 07:29:29;;;;;;;15.98;7.95;;;;;;;8.07;98.39;98105.94;5071062;28;20028;-56
2022/04/07 07:31:54;;;;;;;12.70;7.78;;;;;;;8.17;97.45;98096.31;5070952;28;20039;-56
2022/04/07 07:34:20;;;;;;;16.33;8.23;;;;;;;8.09;98.11;98094.53;5070729;28;20032;-53
2022/04/07 07:36:45;;;;;;;13.35;8.02;;;;;;;8.17;97.72;98134.84;5071090;28;20062;-56
2022/04/07 07:39:10;;;;;;;14.52;8.32;;;;;;;8.27;97.33;98181.16;5070971;28;20032;-55
2022/04/07 07:41:38;;;;;;;11.65;7.35;;;;;;;7.94;91.49;98196.03;5071072;28;20051;-54
2022/04/07 07:44:04;;;;;;;10.35;7.65;;;;;;;7.45;88.95;98175.09;5069093;28;20029;-54
2022/04/07 07:46:30;;;;;;;13.07;8.07;;;;;;;6.59;90.08;98197.31;5070700;28;20544;-52
2022/04/07 07:48:55;;;;;;;9.88;8.07;;;;;;;5.79;92.64;98159.03;5071180;28;20039;-54
2022/04/07 07:51:21;;;;;;;9.18;8.05;;;;;;;5.54;94.82;98227.53;5070830;28;20041;-54
2022/04/07 07:53:46;;;;;;;13.25;8.35;;;;;;;5.20;97.95;98243.13;5069612;28;20040;-51
2022/04/07 07:56:11;;;;;;;11.15;8.40;;;;;;;5.06;99.71;98273.53;5070711;28;20406;-54
2022/04/07 07:58:37;;;;;;;11.40;8.30;;;;;;;4.92;99.86;98272.97;5070686;28;20024;-53
2022/04/07 08:01:02;;;;;;;12.65;8.60;;;;;;;5.15;99.24;98279.78;5070494;28;20068;-53
2022/04/07 08:03:27;;;;;;;12.57;8.98;;;;;;;4.92;99.85;98265.56;5070783;28;20059;-51
2022/04/07 08:05:53;;;;;;;12.85;8.82;;;;;;;5.11;98.39;98261.59;5070483;28;20443;-56
2022/04/07 08:08:18;;;;;;;12.07;8.60;;;;;;;5.08;99.81;98243.88;5070384;28;20035;-54
2022/04/07 08:10:43;;;;;;;14.52;8.55;;;;;;;5.06;100.00;98242.59;5070466;28;20026;-51
2022/04/07 08:13:08;;;;;;;13.15;8.68;;;;;;;5.13;100.00;98234.66;5070507;28;20028;-55
2022/04/07 08:15:34;;;;;;;13.60;8.73;;;;;;;5.25;100.00;98234.69;5070352;28;20439;-55
2022/04/07 08:17:59;;;;;;;12.85;8.80;;;;;;;5.34;100.00;98237.38;5070636;28;20472;-55
2022/04/07 08:20:25;;;;;;;14.65;8.77;;;;;;;5.50;100.00;98228.53;5070369;28;20070;-55
2022/04/07 08:22:50;;;;;;;13.15;8.90;;;;;;;5.48;100.00;98228.88;5070476;28;20381;-53
2022/04/07 08:25:16;;;;;;;15.27;9.20;;;;;;;5.67;100.00;98224.84;5070327;28;20040;-54
2022/04/07 08:27:41;;;;;;;14.55;8.57;;;;;;;5.80;100.00;98248.44;5070352;28;20036;-55
2022/04/07 08:30:07;;;;;;;14.73;8.70;;;;;;;5.94;100.00;98239.91;5070177;28;20027;-53
2022/04/07 08:32:33;;;;;;;15.48;8.20;;;;;;;6.07;100.00;98238.81;5070265;28;20116;-52
2022/04/07 08:34:59;;;;;;;14.80;8.63;;;;;;;6.22;100.00;98228.31;5069971;28;20029;-52
2022/04/07 08:37:25;;;;;;;13.48;8.30;;;;;;;6.29;100.00;98200.28;5070458;28;20020;-51
2022/04/07 08:39:51;;;;;;;12.80;8.13;;;;;;;6.33;100.00;98218.47;5070232;28;20523;-52
2022/04/07 08:42:20;;;;;;;14.05;8.65;;;;;;;6.45;100.00;98227.88;5070212;28;20067;-56
2022/04/07 08:44:46;;;;;;;13.65;8.50;;;;;;;6.66;100.00;98227.78;5068428;28;20036;-54
2022/04/07 08:47:14;;;;;;;15.70;9.00;;;;;;;6.73;100.00;98219.75;5070303;28;20028;-56
2022/04/07 08:49:42;;;;;;;14.15;8.90;;;;;;;6.78;100.00;98219.50;5070238;28;20035;-53
2022/04/07 08:52:08;;;;;;;17.20;8.77;;;;;;;6.83;100.00;98205.53;5069960;28;20028;-52
2022/04/07 08:54:33;;;;;;;14.18;8.45;;;;;;;6.95;100.00;98206.63;5073560;28;20043;-59
2022/04/07 08:56:59;;;;;;;12.07;7.60;;;;;;;7.02;99.47;98207.66;5073950;28;20030;-54
2022/04/07 08:59:24;;;;;;;11.77;7.70;;;;;;;7.14;99.71;98201.31;5091557;28;20107;-55
2022/04/07 09:01:49;;;;;;;13.93;7.63;;;;;;;7.35;100.00;98214.09;5096713;28;20024;-55
2022/04/07 09:04:15;;;;;;;14.30;8.00;;;;;;;7.67;99.76;98203.19;5096807;28;20062;-54
2022/04/07 09:06:41;;;;;;;11.40;6.90;;;;;;;7.93;98.42;98216.50;5096356;28;20059;-54
2022/04/07 09:09:11;;;;;;;10.98;7.10;;;;;;;8.15;97.58;98214.28;5096807;28;20093;-56
2022/04/07 09:11:37;;;;;;;11.43;7.15;;;;;;;8.19;95.93;98206.91;5096795;28;20532;-54
2022/04/07 09:14:02;;;;;;;14.13;7.28;;;;;;;8.25;96.63;98208.22;5061624;28;20123;-55
2022/04/07 09:16:28;;;;;;;12.18;6.45;;;;;;;8.45;94.64;98213.03;5096318;28;20107;-55
2022/04/07 09:18:53;;;;;;;12.65;7.00;;;;;;;8.69;93.38;98212.84;5096338;28;20063;-55
2022/04/07 09:21:24;;;;;;;10.90;6.47;;;;;;;8.80;92.81;98193.81;5096612;28;20380;-55
2022/04/07 09:23:52;;;;;;;13.98;7.00;;;;;;;8.90;93.06;98207.03;5096321;28;20452;-55
2022/04/07 09:26:17;;;;;;;11.48;6.50;;;;;;;9.08;91.38;98214.09;5095640;28;20031;-53
2022/04/07 09:28:43;;;;;;;12.52;7.10;;;;;;;9.13;91.29;98214.63;5095856;28;20125;-55
2022/04/07 09:31:13;;;;;;;14.13;7.00;;;;;;;9.31;91.71;98219.72;5095194;28;20099;-54
2022/04/07 09:33:39;;;;;;;15.32;6.88;;;;;;;9.44;91.01;98220.38;5095948;28;20415;-54
2022/04/07 09:36:06;;;;;;;13.18;7.00;;;;;;;9.56;88.00;98227.69;5095475;28;20035;-55
2022/04/07 09:38:34;;;;;;;14.07;7.15;;;;;;;9.65;85.85;98236.56;5095544;28;20067;-56
2022/04/07 09:41:10;;;;;;;12.40;7.10;;;;;;;9.69;83.38;98223.63;5094823;28;20024;-54
2022/04/07 09:43:49;;;;;;;12.75;7.20;;;;;;;9.73;83.99;98220.94;5094081;28;20032;-54
2022/04/07 09:46:19;;;;;;;12.40;6.88;;;;;;;9.78;80.61;98226.16;5094224;28;20348;-55
2022/04/07 09:49:05;;;;;;;18.83;8.35;;;;;;;9.84;80.49;98231.03;5095105;28;20031;-55
2022/04/07 09:51:46;;;;;;;13.25;7.57;;;;;;;9.91;80.72;98222.09;5095251;28;20032;-55
2022/04/07 09:54:13;;;;;;;12.30;7.80;;;;;;;10.06;78.97;98206.56;5095567;28;20106;-52
2022/04/07 09:56:39;;;;;;;14.20;7.70;;;;;;;10.12;80.07;98202.31;5095685;28;20032;-52
2022/04/07 09:59:06;;;;;;;13.52;7.60;;;;;;;10.19;79.16;98209.16;5095513;28;20020;-55
2022/04/07 10:01:32;;;;;;;16.58;8.00;;;;;;;10.19;78.75;98201.66;5095395;28;20523;-56
2022/04/07 10:03:58;;;;;;;17.35;8.25;;;;;;;10.17;77.55;98206.75;5094952;28;20023;-55
2022/04/07 10:06:24;;;;;;;14.10;8.30;;;;;;;10.24;78.06;98204.13;5095024;28;20043;-55
2022/04/07 10:08:50;;;;;;;17.63;7.60;;;;;;;10.26;77.42;98212.03;5095499;28;20419;-53
2022/04/07 10:11:17;;;;;;;15.57;7.70;;;;;;;10.33;73.61;98225.97;5095305;28;20059;-55
2022/04/07 10:13:44;;;;;;;17.42;7.60;;;;;;;10.48;71.01;98212.44;5095403;28;20080;-53
2022/04/07 10:16:10;;;;;;;16.73;8.25;;;;;;;10.49;68.72;98222.31;5095056;28;20106;-54
2022/04/07 10:18:49;;;;;;;15.02;7.90;;;;;;;10.66;69.11;98224.56;5094920;28;20433;-55
2022/04/07 10:21:36;;;;;;;14.27;7.55;;;;;;;10.67;66.44;98222.59;5093690;28;20384;-55
2022/04/07 10:24:26;;;;;;;15.70;7.70;;;;;;;10.73;66.44;98230.22;5094711;28;20089;-55
2022/04/07 10:26:52;;;;;;;15.85;7.20;;;;;;;10.67;66.28;98237.25;5090927;28;20032;-53
2022/04/07 10:29:21;;;;;;;18.02;8.18;;;;;;;10.66;66.13;98234.81;5092139;28;20031;-54
2022/04/07 10:32:11;;;;;;;16.90;7.90;;;;;;;10.69;66.14;98248.69;5091819;28;20071;-53
2022/04/07 10:34:43;;;;;;;15.75;8.40;;;;;;;10.67;63.92;98256.59;5092415;28;20435;-53
2022/04/07 10:37:11;;;;;;;16.05;8.70;;;;;;;10.85;63.89;98245.00;5091720;28;20032;-50
2022/04/07 10:39:41;;;;;;;16.98;8.55;;;;;;;11.04;64.87;98249.63;5091998;28;20067;-52
2022/04/07 10:42:09;;;;;;;16.42;8.02;;;;;;;11.14;62.26;98265.59;5091980;28;20507;-55
2022/04/07 10:44:34;;;;;;;14.02;7.90;;;;;;;11.25;60.05;98282.31;5092050;28;20027;-55
2022/04/07 10:47:08;;;;;;;18.63;8.15;;;;;;;10.83;60.66;98250.88;5091952;28;20031;-54
2022/04/07 10:49:34;;;;;;;17.23;8.25;;;;;;;10.55;59.49;98267.84;5074088;28;20507;-51
2022/04/07 10:52:04;;;;;;;18.08;7.70;;;;;;;10.76;57.66;98287.56;5091547;28;20105;-54
2022/04/07 10:54:29;;;;;;;12.68;7.00;;;;;;;10.85;56.29;98289.25;5091918;28;20054;-55
2022/04/07 10:56:56;;;;;;;16.50;8.75;;;;;;;11.03;56.50;98300.59;5091398;28;20476;-51
2022/04/07 10:59:34;;;;;;;14.77;8.05;;;;;;;11.01;57.19;98306.50;5091900;28;20043;-54
2022/04/07 11:02:02;;;;;;;15.60;7.50;;;;;;;11.10;57.47;98299.91;5091731;28;20119;-54
2022/04/07 11:04:29;;;;;;;13.60;7.72;;;;;;;11.28;56.56;98300.97;5092211;28;20499;-52
2022/04/07 11:07:16;;;;;;;14.68;7.85;;;;;;;11.36;57.05;98299.91;5092313;28;20055;-52
2022/04/07 11:10:11;;;;;;;18.98;8.52;;;;;;;11.25;57.42;98307.25;5092074;28;20040;-54
2022/04/07 11:12:44;;;;;;;17.27;8.40;;;;;;;11.25;57.58;98326.63;5092166;28;20426;-52
2022/04/07 11:15:29;;;;;;;15.57;7.95;;;;;;;11.21;57.24;98309.97;5091743;28;20024;-51
2022/04/07 11:18:01;;;;;;;17.17;7.70;;;;;;;11.02;58.00;98334.94;5091548;28;20111;-55
2022/04/07 11:20:26;;;;;;;14.73;8.55;;;;;;;11.12;56.17;98328.00;5091416;28;20024;-49
2022/04/07 11:22:55;;;;;;;18.40;8.70;;;;;;;11.03;56.25;98337.38;5091422;28;20044;-48
2022/04/07 11:25:38;;;;;;;16.13;8.32;;;;;;;10.92;56.77;98331.66;5091482;28;20433;-52
2022/04/07 11:28:18;;;;;;;18.83;8.20;;;;;;;10.98;56.97;98334.91;5090115;28;20046;-48
2022/04/07 11:30:46;;;;;;;15.68;8.50;;;;;;;10.74;58.43;98330.53;5090775;28;20024;-50